Impacts METAR Board
IDs:

KSSF - San Antonio/Stinson, TX, US

Updated at: 1700 UTC 16 Oct 2021
Potential Impact None Slight Moderate High
Time 16/05Z 16/06Z 16/07Z 16/08Z 16/09Z 16/10Z 16/11Z 16/12Z 16/13Z 16/14Z 16/15Z 16/16Z 16/17Z
Temp72 70 69 68 67 65 64 63 62 65 68 70 74
Dewpt52 50 47 46 45 44 44 44 44 44 44 41 42
Altim30.17 30.18 30.20 30.21 30.22 30.23 30.26 30.29 30.30 30.32 30.35 30.36 30.36
VIS10 10 10 10 10 10 10 10 10 10 10 10 10
CIG-- -- 80 -- -- -- -- -- -- -- -- -- --
CoverCLRCLRBKNSCTCLRCLRCLRCLRCLRCLRCLRCLRCLR
FltCatVFRVFRVFRVFRVFRVFRVFRVFRVFRVFRVFRVFRVFR
WX--------------------------
WDir2020201020303030303050500
WSpd11 11 13 12 9 9 9 7 7 12 10 14 6
WGst23 26 23 21 18 17 -- -- 15 18 18 24 19
Raw hourly METARs
KSSF 160453Z AUTO 02011G23KT 10SM CLR 22/11 A3017 RMK AO2 SLP205 T02220111 403440222
KSSF 160553Z AUTO 02011G26KT 10SM CLR 21/10 A3018 RMK AO2 PK WND 02027/0529 SLP209 T02110100 10261 20211 51025
KSSF 160653Z AUTO 02013G23KT 10SM BKN080 21/08 A3020 RMK AO2 PK WND 01027/0613 SLP215 T02060083
KSSF 160753Z AUTO 01012G21KT 10SM SCT080 20/08 A3021 RMK AO2 SLP218 T02000078
KSSF 160853Z AUTO 02009G18KT 10SM CLR 19/07 A3022 RMK AO2 SLP225 T01940072 51013
KSSF 160953Z AUTO 03009G17KT 10SM CLR 18/07 A3023 RMK AO2 SLP230 T01830067
KSSF 161053Z AUTO 03009KT 10SM CLR 18/07 A3026 RMK AO2 SLP238 T01780067
KSSF 161153Z 03007KT 10SM CLR 17/07 A3029 RMK AO2 SLP249 70042 T01720067 10211 20172 53024
KSSF 161253Z 03007G15KT 10SM CLR 17/07 A3030 RMK AO2 SLP255 T01670067
KSSF 161353Z 03012G18KT 10SM CLR 18/07 A3032 RMK AO2 SLP260 T01830067
KSSF 161453Z 05010G18KT 10SM CLR 20/07 A3035 RMK AO2 SLP268 T02000067 53018
KSSF 161553Z 05014G24KT 10SM CLR 21/05 A3036 RMK AO2 SLP272 T02110050
KSSF 161653Z VRB06G19KT 10SM CLR 23/06 A3036 RMK AO2 SLP272 T02330056